sensor_id;sensor_type;location;lat;lon;timestamp;P1;durP1;ratioP1;P2;durP2;ratioP2
23696;SDS011;48864;50.820;4.400;2022-09-13T00:01:54;4.55;;;3.17;;
23696;SDS011;48864;50.820;4.400;2022-09-13T00:04:20;3.75;;;3.17;;
23696;SDS011;48864;50.820;4.400;2022-09-13T00:06:46;4.43;;;3.28;;
23696;SDS011;48864;50.820;4.400;2022-09-13T00:09:11;3.70;;;3.30;;
23696;SDS011;48864;50.820;4.400;2022-09-13T00:11:37;6.13;;;3.60;;
23696;SDS011;48864;50.820;4.400;2022-09-13T00:14:03;3.58;;;3.20;;
23696;SDS011;48864;50.820;4.400;2022-09-13T00:16:29;4.65;;;3.25;;
23696;SDS011;48864;50.820;4.400;2022-09-13T00:18:55;3.50;;;3.20;;
23696;SDS011;48864;50.820;4.400;2022-09-13T00:21:21;3.75;;;3.10;;
23696;SDS011;48864;50.820;4.400;2022-09-13T00:23:49;5.05;;;3.20;;
23696;SDS011;48864;50.820;4.400;2022-09-13T00:26:18;4.10;;;3.55;;
23696;SDS011;48864;50.820;4.400;2022-09-13T00:28:47;8.27;;;3.20;;
23696;SDS011;48864;50.820;4.400;2022-09-13T00:31:15;3.58;;;3.28;;
23696;SDS011;48864;50.820;4.400;2022-09-13T00:33:41;6.72;;;3.50;;
23696;SDS011;48864;50.820;4.400;2022-09-13T00:36:08;3.67;;;3.38;;
23696;SDS011;48864;50.820;4.400;2022-09-13T00:38:35;3.42;;;3.10;;
23696;SDS011;48864;50.820;4.400;2022-09-13T00:41:03;3.95;;;3.25;;
23696;SDS011;48864;50.820;4.400;2022-09-13T00:43:49;3.55;;;3.25;;
23696;SDS011;48864;50.820;4.400;2022-09-13T00:46:42;3.92;;;3.17;;
23696;SDS011;48864;50.820;4.400;2022-09-13T00:49:13;4.13;;;3.10;;
23696;SDS011;48864;50.820;4.400;2022-09-13T00:51:46;3.75;;;3.42;;
23696;SDS011;48864;50.820;4.400;2022-09-13T00:54:15;5.07;;;3.10;;
23696;SDS011;48864;50.820;4.400;2022-09-13T00:56:45;3.42;;;3.13;;
23696;SDS011;48864;50.820;4.400;2022-09-13T00:59:15;5.07;;;3.30;;
23696;SDS011;48864;50.820;4.400;2022-09-13T01:01:50;3.33;;;2.97;;
23696;SDS011;48864;50.820;4.400;2022-09-13T01:04:19;3.70;;;3.33;;
23696;SDS011;48864;50.820;4.400;2022-09-13T01:06:47;4.40;;;3.20;;
23696;SDS011;48864;50.820;4.400;2022-09-13T01:09:15;8.52;;;3.30;;
23696;SDS011;48864;50.820;4.400;2022-09-13T01:11:44;3.50;;;2.97;;
23696;SDS011;48864;50.820;4.400;2022-09-13T01:14:14;4.00;;;3.15;;
23696;SDS011;48864;50.820;4.400;2022-09-13T01:16:42;2.90;;;2.70;;
23696;SDS011;48864;50.820;4.400;2022-09-13T01:19:07;8.48;;;3.00;;
23696;SDS011;48864;50.820;4.400;2022-09-13T01:24:08;5.75;;;2.85;;
23696;SDS011;48864;50.820;4.400;2022-09-13T01:40:42;4.20;;;3.13;;
23696;SDS011;48864;50.820;4.400;2022-09-13T01:46:07;3.45;;;2.83;;
23696;SDS011;48864;50.820;4.400;2022-09-13T01:51:32;2.83;;;2.60;;
23696;SDS011;48864;50.820;4.400;2022-09-13T01:56:31;3.40;;;2.90;;
23696;SDS011;48864;50.820;4.400;2022-09-13T01:59:17;3.15;;;2.85;;
23696;SDS011;48864;50.820;4.400;2022-09-13T02:01:54;3.83;;;2.80;;
23696;SDS011;48864;50.820;4.400;2022-09-13T02:04:28;7.13;;;3.00;;
23696;SDS011;48864;50.820;4.400;2022-09-13T02:07:05;3.00;;;2.70;;
23696;SDS011;48864;50.820;4.400;2022-09-13T02:09:33;3.60;;;2.70;;
23696;SDS011;48864;50.820;4.400;2022-09-13T02:12:05;3.40;;;2.38;;
23696;SDS011;48864;50.820;4.400;2022-09-13T02:14:43;3.58;;;2.80;;
23696;SDS011;48864;50.820;4.400;2022-09-13T02:17:14;2.75;;;2.58;;
23696;SDS011;48864;50.820;4.400;2022-09-13T02:19:52;4.70;;;2.55;;
23696;SDS011;48864;50.820;4.400;2022-09-13T02:22:20;2.90;;;2.60;;
23696;SDS011;48864;50.820;4.400;2022-09-13T02:24:54;2.90;;;2.70;;
23696;SDS011;48864;50.820;4.400;2022-09-13T02:27:24;3.25;;;2.95;;
23696;SDS011;48864;50.820;4.400;2022-09-13T02:29:54;3.17;;;2.72;;
23696;SDS011;48864;50.820;4.400;2022-09-13T02:35:34;3.40;;;3.10;;
23696;SDS011;48864;50.820;4.400;2022-09-13T02:38:04;3.20;;;2.92;;
23696;SDS011;48864;50.820;4.400;2022-09-13T02:40:38;5.72;;;2.90;;
23696;SDS011;48864;50.820;4.400;2022-09-13T02:43:11;3.05;;;2.80;;
23696;SDS011;48864;50.820;4.400;2022-09-13T02:45:47;5.00;;;3.10;;
23696;SDS011;48864;50.820;4.400;2022-09-13T02:49:06;3.65;;;2.80;;
23696;SDS011;48864;50.820;4.400;2022-09-13T02:51:19;3.33;;;3.03;;
23696;SDS011;48864;50.820;4.400;2022-09-13T02:59:14;3.65;;;3.08;;
23696;SDS011;48864;50.820;4.400;2022-09-13T03:01:43;3.30;;;2.95;;
23696;SDS011;48864;50.820;4.400;2022-09-13T03:04:16;3.58;;;2.83;;
23696;SDS011;48864;50.820;4.400;2022-09-13T03:06:42;4.93;;;2.75;;
23696;SDS011;48864;50.820;4.400;2022-09-13T03:09:08;4.30;;;2.85;;
23696;SDS011;48864;50.820;4.400;2022-09-13T03:14:55;3.28;;;2.90;;
23696;SDS011;48864;50.820;4.400;2022-09-13T03:28:30;4.30;;;3.10;;
23696;SDS011;48864;50.820;4.400;2022-09-13T03:31:20;4.00;;;2.88;;
23696;SDS011;48864;50.820;4.400;2022-09-13T03:33:56;3.90;;;2.65;;
23696;SDS011;48864;50.820;4.400;2022-09-13T03:41:41;3.53;;;3.20;;
23696;SDS011;48864;50.820;4.400;2022-09-13T03:44:11;3.75;;;3.25;;
23696;SDS011;48864;50.820;4.400;2022-09-13T03:46:43;4.93;;;3.22;;
23696;SDS011;48864;50.820;4.400;2022-09-13T03:49:16;5.47;;;2.90;;
23696;SDS011;48864;50.820;4.400;2022-09-13T03:51:46;6.15;;;3.13;;
23696;SDS011;48864;50.820;4.400;2022-09-13T03:54:25;3.83;;;3.30;;
23696;SDS011;48864;50.820;4.400;2022-09-13T03:57:04;4.47;;;3.38;;
23696;SDS011;48864;50.820;4.400;2022-09-13T03:59:46;4.53;;;3.15;;
23696;SDS011;48864;50.820;4.400;2022-09-13T04:02:17;3.60;;;3.30;;
23696;SDS011;48864;50.820;4.400;2022-09-13T04:04:44;4.53;;;2.97;;
23696;SDS011;48864;50.820;4.400;2022-09-13T04:07:11;4.00;;;3.30;;
23696;SDS011;48864;50.820;4.400;2022-09-13T04:09:39;4.32;;;2.88;;
23696;SDS011;48864;50.820;4.400;2022-09-13T04:12:05;4.57;;;3.42;;
23696;SDS011;48864;50.820;4.400;2022-09-13T04:14:30;3.60;;;3.30;;
23696;SDS011;48864;50.820;4.400;2022-09-13T04:16:57;3.15;;;2.92;;
23696;SDS011;48864;50.820;4.400;2022-09-13T04:19:23;4.28;;;3.30;;
23696;SDS011;48864;50.820;4.400;2022-09-13T04:21:50;5.32;;;3.40;;
23696;SDS011;48864;50.820;4.400;2022-09-13T04:24:17;5.63;;;3.03;;
23696;SDS011;48864;50.820;4.400;2022-09-13T04:26:44;4.10;;;3.00;;
23696;SDS011;48864;50.820;4.400;2022-09-13T04:29:13;4.15;;;3.10;;
23696;SDS011;48864;50.820;4.400;2022-09-13T04:31:39;25.85;;;24.35;;
23696;SDS011;48864;50.820;4.400;2022-09-13T04:34:04;23.85;;;22.55;;
23696;SDS011;48864;50.820;4.400;2022-09-13T04:36:31;25.40;;;23.80;;
23696;SDS011;48864;50.820;4.400;2022-09-13T04:38:57;27.88;;;26.08;;
23696;SDS011;48864;50.820;4.400;2022-09-13T04:41:24;40.90;;;37.03;;
23696;SDS011;48864;50.820;4.400;2022-09-13T04:43:50;30.92;;;28.55;;
23696;SDS011;48864;50.820;4.400;2022-09-13T04:46:16;27.20;;;25.65;;
23696;SDS011;48864;50.820;4.400;2022-09-13T04:48:42;25.73;;;24.13;;
23696;SDS011;48864;50.820;4.400;2022-09-13T04:51:11;25.83;;;24.20;;
23696;SDS011;48864;50.820;4.400;2022-09-13T04:53:38;26.38;;;24.95;;
23696;SDS011;48864;50.820;4.400;2022-09-13T04:56:04;24.70;;;23.20;;
23696;SDS011;48864;50.820;4.400;2022-09-13T04:58:30;25.23;;;23.73;;
23696;SDS011;48864;50.820;4.400;2022-09-13T05:01:00;26.20;;;24.67;;
23696;SDS011;48864;50.820;4.400;2022-09-13T05:03:30;25.45;;;23.95;;
23696;SDS011;48864;50.820;4.400;2022-09-13T05:06:03;24.30;;;22.77;;
23696;SDS011;48864;50.820;4.400;2022-09-13T05:08:30;25.95;;;24.15;;
23696;SDS011;48864;50.820;4.400;2022-09-13T05:10:56;24.95;;;23.10;;
23696;SDS011;48864;50.820;4.400;2022-09-13T05:13:23;23.35;;;22.05;;
23696;SDS011;48864;50.820;4.400;2022-09-13T05:18:35;22.30;;;21.00;;
23696;SDS011;48864;50.820;4.400;2022-09-13T05:21:02;22.70;;;21.02;;
23696;SDS011;48864;50.820;4.400;2022-09-13T05:23:31;21.70;;;20.27;;
23696;SDS011;48864;50.820;4.400;2022-09-13T05:25:58;21.58;;;20.13;;
23696;SDS011;48864;50.820;4.400;2022-09-13T05:28:26;23.25;;;21.67;;
23696;SDS011;48864;50.820;4.400;2022-09-13T05:31:04;23.23;;;21.58;;
23696;SDS011;48864;50.820;4.400;2022-09-13T05:33:33;22.98;;;21.35;;
23696;SDS011;48864;50.820;4.400;2022-09-13T05:36:00;23.63;;;21.75;;
23696;SDS011;48864;50.820;4.400;2022-09-13T05:38:26;23.73;;;21.85;;
23696;SDS011;48864;50.820;4.400;2022-09-13T05:40:55;22.88;;;21.17;;
23696;SDS011;48864;50.820;4.400;2022-09-13T05:43:29;22.55;;;20.83;;
23696;SDS011;48864;50.820;4.400;2022-09-13T05:46:03;23.35;;;21.55;;
23696;SDS011;48864;50.820;4.400;2022-09-13T05:48:31;24.02;;;22.23;;
23696;SDS011;48864;50.820;4.400;2022-09-13T05:53:41;23.23;;;21.42;;
23696;SDS011;48864;50.820;4.400;2022-09-13T05:56:10;22.40;;;20.63;;
23696;SDS011;48864;50.820;4.400;2022-09-13T05:58:37;22.30;;;20.73;;
23696;SDS011;48864;50.820;4.400;2022-09-13T06:01:06;21.63;;;20.02;;
23696;SDS011;48864;50.820;4.400;2022-09-13T06:03:32;21.75;;;20.35;;
23696;SDS011;48864;50.820;4.400;2022-09-13T06:05:58;21.25;;;19.65;;
23696;SDS011;48864;50.820;4.400;2022-09-13T06:08:24;19.75;;;18.35;;
23696;SDS011;48864;50.820;4.400;2022-09-13T06:10:57;20.13;;;18.38;;
23696;SDS011;48864;50.820;4.400;2022-09-13T06:13:28;21.85;;;20.00;;
23696;SDS011;48864;50.820;4.400;2022-09-13T06:15:54;21.83;;;19.88;;
23696;SDS011;48864;50.820;4.400;2022-09-13T06:18:21;22.35;;;20.73;;
23696;SDS011;48864;50.820;4.400;2022-09-13T06:20:48;22.30;;;20.25;;
23696;SDS011;48864;50.820;4.400;2022-09-13T06:23:14;21.70;;;19.63;;
23696;SDS011;48864;50.820;4.400;2022-09-13T06:25:41;22.30;;;18.95;;
23696;SDS011;48864;50.820;4.400;2022-09-13T06:28:08;23.75;;;21.63;;
23696;SDS011;48864;50.820;4.400;2022-09-13T06:30:34;25.67;;;22.00;;
23696;SDS011;48864;50.820;4.400;2022-09-13T06:33:00;23.30;;;21.35;;
23696;SDS011;48864;50.820;4.400;2022-09-13T06:35:26;22.77;;;21.17;;
23696;SDS011;48864;50.820;4.400;2022-09-13T06:37:56;23.63;;;21.58;;
23696;SDS011;48864;50.820;4.400;2022-09-13T06:40:22;22.33;;;20.58;;
23696;SDS011;48864;50.820;4.400;2022-09-13T06:42:49;23.08;;;21.15;;
23696;SDS011;48864;50.820;4.400;2022-09-13T06:45:14;22.77;;;21.17;;
23696;SDS011;48864;50.820;4.400;2022-09-13T06:47:40;22.75;;;21.00;;
23696;SDS011;48864;50.820;4.400;2022-09-13T06:50:07;24.27;;;22.35;;
23696;SDS011;48864;50.820;4.400;2022-09-13T06:52:33;23.85;;;22.05;;
23696;SDS011;48864;50.820;4.400;2022-09-13T06:54:59;25.45;;;23.25;;
23696;SDS011;48864;50.820;4.400;2022-09-13T06:57:25;26.02;;;23.15;;
23696;SDS011;48864;50.820;4.400;2022-09-13T06:59:53;24.17;;;21.65;;
23696;SDS011;48864;50.820;4.400;2022-09-13T07:02:20;8.43;;;4.65;;
23696;SDS011;48864;50.820;4.400;2022-09-13T07:04:45;14.85;;;5.20;;
23696;SDS011;48864;50.820;4.400;2022-09-13T07:07:11;8.38;;;5.10;;
23696;SDS011;48864;50.820;4.400;2022-09-13T07:09:36;10.80;;;4.30;;
23696;SDS011;48864;50.820;4.400;2022-09-13T07:12:04;11.73;;;5.03;;
23696;SDS011;48864;50.820;4.400;2022-09-13T07:14:31;10.40;;;5.60;;
23696;SDS011;48864;50.820;4.400;2022-09-13T07:16:56;16.38;;;9.60;;
23696;SDS011;48864;50.820;4.400;2022-09-13T07:19:29;14.30;;;8.55;;
23696;SDS011;48864;50.820;4.400;2022-09-13T07:21:55;9.40;;;5.35;;
23696;SDS011;48864;50.820;4.400;2022-09-13T07:24:22;11.18;;;6.20;;
23696;SDS011;48864;50.820;4.400;2022-09-13T07:26:48;12.02;;;5.18;;
23696;SDS011;48864;50.820;4.400;2022-09-13T07:29:16;8.95;;;5.00;;
23696;SDS011;48864;50.820;4.400;2022-09-13T07:31:46;13.93;;;5.47;;
23696;SDS011;48864;50.820;4.400;2022-09-13T07:34:16;10.90;;;5.20;;
23696;SDS011;48864;50.820;4.400;2022-09-13T07:36:44;10.98;;;5.03;;
23696;SDS011;48864;50.820;4.400;2022-09-13T07:39:11;14.70;;;5.57;;
23696;SDS011;48864;50.820;4.400;2022-09-13T07:41:42;15.77;;;5.78;;
23696;SDS011;48864;50.820;4.400;2022-09-13T07:44:09;15.63;;;5.60;;
23696;SDS011;48864;50.820;4.400;2022-09-13T07:46:36;7.72;;;4.57;;
23696;SDS011;48864;50.820;4.400;2022-09-13T07:49:07;11.85;;;4.80;;
23696;SDS011;48864;50.820;4.400;2022-09-13T07:51:35;11.57;;;4.80;;
23696;SDS011;48864;50.820;4.400;2022-09-13T07:54:04;10.77;;;4.50;;
23696;SDS011;48864;50.820;4.400;2022-09-13T07:56:35;13.95;;;4.53;;
23696;SDS011;48864;50.820;4.400;2022-09-13T07:59:03;13.02;;;4.47;;
23696;SDS011;48864;50.820;4.400;2022-09-13T08:01:35;13.85;;;4.53;;
23696;SDS011;48864;50.820;4.400;2022-09-13T08:04:06;7.75;;;4.07;;
23696;SDS011;48864;50.820;4.400;2022-09-13T08:06:34;10.98;;;4.45;;
23696;SDS011;48864;50.820;4.400;2022-09-13T08:09:01;9.50;;;4.60;;
23696;SDS011;48864;50.820;4.400;2022-09-13T08:11:30;12.63;;;4.28;;
23696;SDS011;48864;50.820;4.400;2022-09-13T08:14:00;9.93;;;3.92;;
23696;SDS011;48864;50.820;4.400;2022-09-13T08:16:27;9.77;;;4.00;;
23696;SDS011;48864;50.820;4.400;2022-09-13T08:18:54;7.65;;;3.50;;
23696;SDS011;48864;50.820;4.400;2022-09-13T08:21:22;8.80;;;3.72;;
23696;SDS011;48864;50.820;4.400;2022-09-13T08:23:48;6.35;;;3.65;;
23696;SDS011;48864;50.820;4.400;2022-09-13T08:26:14;8.35;;;3.63;;
23696;SDS011;48864;50.820;4.400;2022-09-13T08:28:41;6.25;;;3.80;;
23696;SDS011;48864;50.820;4.400;2022-09-13T08:31:10;7.53;;;3.90;;
23696;SDS011;48864;50.820;4.400;2022-09-13T08:33:41;8.55;;;3.72;;
23696;SDS011;48864;50.820;4.400;2022-09-13T08:36:08;6.55;;;3.70;;
23696;SDS011;48864;50.820;4.400;2022-09-13T08:38:34;12.57;;;4.10;;
23696;SDS011;48864;50.820;4.400;2022-09-13T08:41:01;5.65;;;4.10;;
23696;SDS011;48864;50.820;4.400;2022-09-13T08:46:35;8.88;;;4.38;;
23696;SDS011;48864;50.820;4.400;2022-09-13T08:49:07;12.20;;;5.25;;
23696;SDS011;48864;50.820;4.400;2022-09-13T08:51:50;10.65;;;5.00;;
23696;SDS011;48864;50.820;4.400;2022-09-13T08:54:19;8.27;;;4.70;;
23696;SDS011;48864;50.820;4.400;2022-09-13T08:59:49;12.82;;;5.30;;
23696;SDS011;48864;50.820;4.400;2022-09-13T09:02:34;10.02;;;5.05;;
23696;SDS011;48864;50.820;4.400;2022-09-13T09:05:32;6.68;;;4.25;;
23696;SDS011;48864;50.820;4.400;2022-09-13T09:08:13;8.05;;;5.40;;
23696;SDS011;48864;50.820;4.400;2022-09-13T09:10:55;8.88;;;5.03;;
23696;SDS011;48864;50.820;4.400;2022-09-13T09:13:29;12.23;;;5.53;;
23696;SDS011;48864;50.820;4.400;2022-09-13T09:16:44;9.00;;;4.93;;
23696;SDS011;48864;50.820;4.400;2022-09-13T09:18:56;9.48;;;4.88;;
23696;SDS011;48864;50.820;4.400;2022-09-13T09:21:28;7.53;;;4.63;;
23696;SDS011;48864;50.820;4.400;2022-09-13T09:23:54;10.18;;;5.13;;
23696;SDS011;48864;50.820;4.400;2022-09-13T09:26:25;10.43;;;5.60;;
23696;SDS011;48864;50.820;4.400;2022-09-13T09:37:30;7.55;;;4.60;;
23696;SDS011;48864;50.820;4.400;2022-09-13T09:39:59;7.88;;;4.38;;
23696;SDS011;48864;50.820;4.400;2022-09-13T09:42:34;8.52;;;4.85;;
23696;SDS011;48864;50.820;4.400;2022-09-13T09:45:05;6.53;;;3.95;;
23696;SDS011;48864;50.820;4.400;2022-09-13T09:47:46;8.32;;;4.93;;
23696;SDS011;48864;50.820;4.400;2022-09-13T09:50:16;12.13;;;4.88;;
23696;SDS011;48864;50.820;4.400;2022-09-13T09:58:52;10.93;;;4.93;;
23696;SDS011;48864;50.820;4.400;2022-09-13T10:06:36;8.15;;;4.15;;
23696;SDS011;48864;50.820;4.400;2022-09-13T10:11:49;8.73;;;5.38;;
23696;SDS011;48864;50.820;4.400;2022-09-13T10:14:29;17.30;;;6.80;;
23696;SDS011;48864;50.820;4.400;2022-09-13T10:19:40;23.60;;;7.40;;
23696;SDS011;48864;50.820;4.400;2022-09-13T10:22:15;42.45;;;14.25;;
23696;SDS011;48864;50.820;4.400;2022-09-13T10:24:40;8.52;;;5.57;;
23696;SDS011;48864;50.820;4.400;2022-09-13T10:27:52;16.83;;;6.80;;
23696;SDS011;48864;50.820;4.400;2022-09-13T10:29:55;12.77;;;5.05;;
23696;SDS011;48864;50.820;4.400;2022-09-13T10:32:24;9.40;;;5.13;;
23696;SDS011;48864;50.820;4.400;2022-09-13T10:37:25;10.60;;;4.65;;
23696;SDS011;48864;50.820;4.400;2022-09-13T10:40:06;8.07;;;4.22;;
23696;SDS011;48864;50.820;4.400;2022-09-13T10:42:41;7.47;;;4.30;;
23696;SDS011;48864;50.820;4.400;2022-09-13T10:45:23;6.68;;;4.63;;
23696;SDS011;48864;50.820;4.400;2022-09-13T10:47:52;9.50;;;4.93;;
23696;SDS011;48864;50.820;4.400;2022-09-13T10:57:47;8.10;;;4.18;;
23696;SDS011;48864;50.820;4.400;2022-09-13T11:00:16;7.00;;;3.97;;
23696;SDS011;48864;50.820;4.400;2022-09-13T11:10:53;6.53;;;3.80;;
23696;SDS011;48864;50.820;4.400;2022-09-13T11:16:27;4.53;;;3.30;;
23696;SDS011;48864;50.820;4.400;2022-09-13T11:19:07;6.72;;;3.75;;
23696;SDS011;48864;50.820;4.400;2022-09-13T11:21:52;8.90;;;5.57;;
23696;SDS011;48864;50.820;4.400;2022-09-13T11:30:16;8.18;;;3.70;;
23696;SDS011;48864;50.820;4.400;2022-09-13T11:32:48;5.47;;;3.45;;
23696;SDS011;48864;50.820;4.400;2022-09-13T11:35:42;4.30;;;3.88;;
23696;SDS011;48864;50.820;4.400;2022-09-13T11:38:35;6.30;;;3.63;;
23696;SDS011;48864;50.820;4.400;2022-09-13T11:47:26;9.95;;;4.00;;
23696;SDS011;48864;50.820;4.400;2022-09-13T11:55:15;5.15;;;3.50;;
23696;SDS011;48864;50.820;4.400;2022-09-13T11:57:51;7.53;;;4.18;;
23696;SDS011;48864;50.820;4.400;2022-09-13T12:00:33;11.75;;;4.88;;
23696;SDS011;48864;50.820;4.400;2022-09-13T12:05:52;6.05;;;3.33;;
23696;SDS011;48864;50.820;4.400;2022-09-13T12:08:25;4.95;;;3.83;;
23696;SDS011;48864;50.820;4.400;2022-09-13T12:10:57;5.90;;;3.97;;
23696;SDS011;48864;50.820;4.400;2022-09-13T12:13:40;6.78;;;3.85;;
23696;SDS011;48864;50.820;4.400;2022-09-13T12:16:21;7.70;;;4.00;;
23696;SDS011;48864;50.820;4.400;2022-09-13T12:18:50;6.13;;;3.80;;
23696;SDS011;48864;50.820;4.400;2022-09-13T12:21:20;6.13;;;3.60;;
23696;SDS011;48864;50.820;4.400;2022-09-13T12:26:29;6.15;;;3.78;;
23696;SDS011;48864;50.820;4.400;2022-09-13T12:32:04;7.78;;;4.40;;
23696;SDS011;48864;50.820;4.400;2022-09-13T12:37:12;3.85;;;3.42;;
23696;SDS011;48864;50.820;4.400;2022-09-13T12:43:07;3.72;;;3.33;;
23696;SDS011;48864;50.820;4.400;2022-09-13T12:51:33;5.07;;;3.80;;
23696;SDS011;48864;50.820;4.400;2022-09-13T12:54:11;4.75;;;3.78;;
23696;SDS011;48864;50.820;4.400;2022-09-13T12:59:48;5.22;;;3.70;;
23696;SDS011;48864;50.820;4.400;2022-09-13T13:02:27;4.65;;;3.53;;
23696;SDS011;48864;50.820;4.400;2022-09-13T13:05:04;6.30;;;3.35;;
23696;SDS011;48864;50.820;4.400;2022-09-13T13:07:42;6.15;;;4.03;;
23696;SDS011;48864;50.820;4.400;2022-09-13T13:10:23;7.20;;;4.10;;
23696;SDS011;48864;50.820;4.400;2022-09-13T13:13:11;7.72;;;4.43;;
23696;SDS011;48864;50.820;4.400;2022-09-13T13:15:54;6.28;;;3.75;;
23696;SDS011;48864;50.820;4.400;2022-09-13T13:21:20;8.05;;;3.88;;
23696;SDS011;48864;50.820;4.400;2022-09-13T13:26:54;5.22;;;4.05;;
23696;SDS011;48864;50.820;4.400;2022-09-13T13:29:22;9.52;;;3.85;;
23696;SDS011;48864;50.820;4.400;2022-09-13T13:34:25;6.40;;;3.78;;
23696;SDS011;48864;50.820;4.400;2022-09-13T13:36:55;8.70;;;4.40;;
23696;SDS011;48864;50.820;4.400;2022-09-13T13:47:39;8.23;;;4.70;;
23696;SDS011;48864;50.820;4.400;2022-09-13T13:57:34;6.15;;;4.00;;
23696;SDS011;48864;50.820;4.400;2022-09-13T14:05:27;5.78;;;4.13;;
23696;SDS011;48864;50.820;4.400;2022-09-13T14:11:14;4.50;;;4.05;;
23696;SDS011;48864;50.820;4.400;2022-09-13T14:13:59;6.63;;;4.45;;
23696;SDS011;48864;50.820;4.400;2022-09-13T14:19:27;6.93;;;4.97;;
23696;SDS011;48864;50.820;4.400;2022-09-13T14:22:12;6.40;;;4.47;;
23696;SDS011;48864;50.820;4.400;2022-09-13T14:27:23;5.18;;;3.80;;
23696;SDS011;48864;50.820;4.400;2022-09-13T14:30:03;5.15;;;3.53;;
23696;SDS011;48864;50.820;4.400;2022-09-13T14:32:41;4.97;;;3.60;;
23696;SDS011;48864;50.820;4.400;2022-09-13T14:43:45;8.18;;;4.85;;
23696;SDS011;48864;50.820;4.400;2022-09-13T14:46:26;7.40;;;4.90;;
23696;SDS011;48864;50.820;4.400;2022-09-13T14:48:58;5.82;;;4.93;;
23696;SDS011;48864;50.820;4.400;2022-09-13T14:51:27;5.13;;;4.53;;
23696;SDS011;48864;50.820;4.400;2022-09-13T14:53:59;8.50;;;5.97;;
23696;SDS011;48864;50.820;4.400;2022-09-13T14:56:36;8.75;;;4.40;;
23696;SDS011;48864;50.820;4.400;2022-09-13T14:59:11;8.45;;;4.30;;
23696;SDS011;48864;50.820;4.400;2022-09-13T15:01:57;21.05;;;19.17;;
23696;SDS011;48864;50.820;4.400;2022-09-13T15:04:23;19.67;;;18.27;;
23696;SDS011;48864;50.820;4.400;2022-09-13T15:07:37;19.13;;;17.83;;
23696;SDS011;48864;50.820;4.400;2022-09-13T15:09:46;19.40;;;17.95;;
23696;SDS011;48864;50.820;4.400;2022-09-13T15:12:20;19.27;;;17.88;;
23696;SDS011;48864;50.820;4.400;2022-09-13T15:14:49;19.67;;;18.30;;
23696;SDS011;48864;50.820;4.400;2022-09-13T15:17:55;19.55;;;18.05;;
23696;SDS011;48864;50.820;4.400;2022-09-13T15:20:25;18.25;;;16.98;;
23696;SDS011;48864;50.820;4.400;2022-09-13T15:23:13;19.50;;;18.10;;
23696;SDS011;48864;50.820;4.400;2022-09-13T15:25:46;19.23;;;17.88;;
23696;SDS011;48864;50.820;4.400;2022-09-13T15:28:32;19.50;;;18.00;;
23696;SDS011;48864;50.820;4.400;2022-09-13T15:31:24;19.60;;;17.67;;
23696;SDS011;48864;50.820;4.400;2022-09-13T15:36:42;19.73;;;18.17;;
23696;SDS011;48864;50.820;4.400;2022-09-13T15:39:14;19.77;;;18.33;;
23696;SDS011;48864;50.820;4.400;2022-09-13T15:41:59;17.55;;;16.33;;
23696;SDS011;48864;50.820;4.400;2022-09-13T15:44:28;17.10;;;15.70;;
23696;SDS011;48864;50.820;4.400;2022-09-13T15:47:00;17.35;;;16.13;;
23696;SDS011;48864;50.820;4.400;2022-09-13T15:49:31;16.95;;;15.55;;
23696;SDS011;48864;50.820;4.400;2022-09-13T15:52:00;17.67;;;16.27;;
23696;SDS011;48864;50.820;4.400;2022-09-13T15:54:34;16.60;;;15.30;;
23696;SDS011;48864;50.820;4.400;2022-09-13T15:57:06;19.52;;;18.10;;
23696;SDS011;48864;50.820;4.400;2022-09-13T15:59:41;17.48;;;15.93;;
23696;SDS011;48864;50.820;4.400;2022-09-13T16:02:18;15.88;;;14.57;;
23696;SDS011;48864;50.820;4.400;2022-09-13T16:04:52;16.70;;;15.50;;
23696;SDS011;48864;50.820;4.400;2022-09-13T16:07:20;16.33;;;15.23;;
23696;SDS011;48864;50.820;4.400;2022-09-13T16:09:47;17.55;;;16.35;;
23696;SDS011;48864;50.820;4.400;2022-09-13T16:12:13;17.65;;;16.23;;
23696;SDS011;48864;50.820;4.400;2022-09-13T16:14:39;17.63;;;16.27;;
23696;SDS011;48864;50.820;4.400;2022-09-13T16:17:19;16.85;;;15.55;;
23696;SDS011;48864;50.820;4.400;2022-09-13T16:19:46;16.38;;;15.27;;
23696;SDS011;48864;50.820;4.400;2022-09-13T16:22:12;17.25;;;15.95;;
23696;SDS011;48864;50.820;4.400;2022-09-13T16:24:37;17.20;;;15.88;;
23696;SDS011;48864;50.820;4.400;2022-09-13T16:27:03;18.13;;;16.27;;
23696;SDS011;48864;50.820;4.400;2022-09-13T16:29:29;16.65;;;15.27;;
23696;SDS011;48864;50.820;4.400;2022-09-13T16:31:55;16.27;;;14.73;;
23696;SDS011;48864;50.820;4.400;2022-09-13T16:34:23;16.50;;;14.88;;
23696;SDS011;48864;50.820;4.400;2022-09-13T16:36:49;15.80;;;14.50;;
23696;SDS011;48864;50.820;4.400;2022-09-13T16:39:15;15.38;;;14.27;;
23696;SDS011;48864;50.820;4.400;2022-09-13T16:41:40;15.80;;;14.70;;
23696;SDS011;48864;50.820;4.400;2022-09-13T16:46:35;15.48;;;14.27;;
23696;SDS011;48864;50.820;4.400;2022-09-13T16:49:01;15.77;;;14.55;;
23696;SDS011;48864;50.820;4.400;2022-09-13T16:51:27;16.00;;;14.90;;
23696;SDS011;48864;50.820;4.400;2022-09-13T16:53:53;16.25;;;14.73;;
23696;SDS011;48864;50.820;4.400;2022-09-13T16:56:21;14.82;;;13.75;;
23696;SDS011;48864;50.820;4.400;2022-09-13T16:58:48;14.48;;;13.50;;
23696;SDS011;48864;50.820;4.400;2022-09-13T17:01:15;6.65;;;3.70;;
23696;SDS011;48864;50.820;4.400;2022-09-13T17:03:44;6.53;;;3.45;;
23696;SDS011;48864;50.820;4.400;2022-09-13T17:06:10;10.13;;;7.55;;
23696;SDS011;48864;50.820;4.400;2022-09-13T17:08:39;9.07;;;6.03;;
23696;SDS011;48864;50.820;4.400;2022-09-13T17:13:36;11.57;;;5.35;;
23696;SDS011;48864;50.820;4.400;2022-09-13T17:16:05;6.20;;;4.50;;
23696;SDS011;48864;50.820;4.400;2022-09-13T17:18:41;15.85;;;6.22;;
23696;SDS011;48864;50.820;4.400;2022-09-13T17:21:06;9.25;;;5.55;;
23696;SDS011;48864;50.820;4.400;2022-09-13T17:23:32;5.47;;;4.40;;
23696;SDS011;48864;50.820;4.400;2022-09-13T17:25:57;5.35;;;4.22;;
23696;SDS011;48864;50.820;4.400;2022-09-13T17:28:23;5.75;;;4.20;;
23696;SDS011;48864;50.820;4.400;2022-09-13T17:30:49;6.43;;;3.88;;
23696;SDS011;48864;50.820;4.400;2022-09-13T17:33:14;5.95;;;3.75;;
23696;SDS011;48864;50.820;4.400;2022-09-13T17:35:40;6.15;;;3.65;;
23696;SDS011;48864;50.820;4.400;2022-09-13T17:38:07;8.05;;;4.57;;
23696;SDS011;48864;50.820;4.400;2022-09-13T17:40:33;4.82;;;4.03;;
23696;SDS011;48864;50.820;4.400;2022-09-13T17:42:59;7.72;;;4.72;;
23696;SDS011;48864;50.820;4.400;2022-09-13T17:45:25;6.82;;;4.10;;
23696;SDS011;48864;50.820;4.400;2022-09-13T17:47:51;6.72;;;4.65;;
23696;SDS011;48864;50.820;4.400;2022-09-13T17:50:17;6.68;;;4.80;;
23696;SDS011;48864;50.820;4.400;2022-09-13T17:52:42;8.18;;;4.30;;
23696;SDS011;48864;50.820;4.400;2022-09-13T17:55:08;8.27;;;4.68;;
23696;SDS011;48864;50.820;4.400;2022-09-13T17:57:35;7.10;;;4.50;;
23696;SDS011;48864;50.820;4.400;2022-09-13T18:00:02;8.20;;;4.53;;
23696;SDS011;48864;50.820;4.400;2022-09-13T18:02:29;7.55;;;4.90;;
23696;SDS011;48864;50.820;4.400;2022-09-13T18:04:55;6.28;;;5.50;;
23696;SDS011;48864;50.820;4.400;2022-09-13T18:07:20;7.68;;;5.70;;
23696;SDS011;48864;50.820;4.400;2022-09-13T18:09:46;12.13;;;6.20;;
23696;SDS011;48864;50.820;4.400;2022-09-13T18:12:12;31.40;;;19.13;;
23696;SDS011;48864;50.820;4.400;2022-09-13T18:14:37;8.32;;;5.80;;
23696;SDS011;48864;50.820;4.400;2022-09-13T18:17:03;7.50;;;5.50;;
23696;SDS011;48864;50.820;4.400;2022-09-13T18:19:37;10.70;;;5.68;;
23696;SDS011;48864;50.820;4.400;2022-09-13T18:22:16;8.80;;;5.38;;
23696;SDS011;48864;50.820;4.400;2022-09-13T18:24:47;8.23;;;5.00;;
23696;SDS011;48864;50.820;4.400;2022-09-13T18:27:13;7.20;;;5.32;;